Terminal Aerodrome Forecast
Issued by NWS

Home | Current Version | Previous Version | Text Only | Print | Product List | Glossary On
Versions: 1 2 3 4 5 6 7 8 9 10 11 12 13 14 15 16
000
FTUS43 KGLD 220258 AAB
TAFMCK
TAF AMD
KMCK 220258Z 2203/2224 36011KT P6SM SCT020 SCT150 WS020/02035KT
     FM221500 05010KT P6SM FEW110 FEW250
     FM221900 12011KT P6SM SKC=

USA.gov is the U.S. government's official web portal to all federal, state and local government web resources and services.